createdAt,value
2023-02-16T00:00:00.293Z,44.5
2023-02-16T00:01:01.181Z,44.5
2023-02-16T00:02:00.350Z,44.8
2023-02-16T00:03:00.352Z,44.8
2023-02-16T00:04:01.124Z,44.8
2023-02-16T00:05:00.300Z,44.8
2023-02-16T00:06:00.290Z,44.8
2023-02-16T00:07:00.293Z,45.1
2023-02-16T00:08:00.833Z,45.1
2023-02-16T00:09:00.281Z,45.1
2023-02-16T00:10:00.300Z,45.1
2023-02-16T00:11:00.529Z,45.1
2023-02-16T00:12:00.419Z,42.7
2023-02-16T00:13:01.058Z,42.7
2023-02-16T00:14:00.475Z,42.7
2023-02-16T00:15:00.330Z,42.7
2023-02-16T00:16:00.391Z,42.7
2023-02-16T00:17:00.941Z,46.0
2023-02-16T00:18:01.447Z,46.0
2023-02-16T00:19:00.562Z,46.0
2023-02-16T00:20:00.305Z,46.0
2023-02-16T00:21:00.296Z,46.0
2023-02-16T00:22:01.126Z,47.4
2023-02-16T00:23:00.291Z,47.4
2023-02-16T00:24:00.326Z,47.4
2023-02-16T00:25:00.309Z,47.4
2023-02-16T00:26:00.592Z,47.4
2023-02-16T00:27:00.940Z,45.8
2023-02-16T00:28:04.727Z,45.8
2023-02-16T00:29:00.573Z,45.8
2023-02-16T00:30:00.629Z,45.8
2023-02-16T00:31:00.490Z,45.8
2023-02-16T00:32:02.340Z,46.6
2023-02-16T00:33:00.366Z,46.6
2023-02-16T00:34:20.235Z,46.6
2023-02-16T00:35:00.597Z,46.6
2023-02-16T00:36:00.313Z,46.6
2023-02-16T00:37:03.258Z,47.8
2023-02-16T00:38:00.327Z,47.8
2023-02-16T00:39:00.307Z,47.8
2023-02-16T00:40:00.320Z,47.8
2023-02-16T00:41:00.574Z,47.8
2023-02-16T00:42:03.909Z,47.9
2023-02-16T00:43:00.417Z,47.9
2023-02-16T00:44:00.307Z,47.9
2023-02-16T00:45:00.808Z,47.9
2023-02-16T00:46:00.417Z,47.9
2023-02-16T00:47:07.821Z,47.0
2023-02-16T00:48:00.708Z,47.0
2023-02-16T00:49:00.314Z,47.0
2023-02-16T00:50:00.288Z,47.0
2023-02-16T00:51:00.317Z,47.0
2023-02-16T00:52:00.681Z,46.4
2023-02-16T00:53:00.610Z,46.4
2023-02-16T00:54:00.281Z,46.4
2023-02-16T00:55:04.811Z,46.4
2023-02-16T00:56:00.397Z,46.4
2023-02-16T00:57:00.438Z,49.8
2023-02-16T00:58:13.824Z,49.8
2023-02-16T00:59:01.806Z,49.8
2023-02-16T01:00:14.186Z,49.8
2023-02-16T01:01:08.378Z,49.8
2023-02-16T01:02:00.311Z,49.4
2023-02-16T01:03:04.378Z,49.4
2023-02-16T01:04:03.373Z,49.4
2023-02-16T01:05:00.333Z,49.4
2023-02-16T01:06:00.316Z,49.4
2023-02-16T01:07:00.344Z,46.3
2023-02-16T01:08:01.384Z,46.3
2023-02-16T01:09:11.597Z,46.3
2023-02-16T01:10:00.274Z,46.3
2023-02-16T01:11:03.216Z,46.3
2023-02-16T01:12:03.469Z,47.3
2023-02-16T01:13:00.458Z,47.3
2023-02-16T01:14:00.462Z,47.3
2023-02-16T01:15:00.314Z,47.3
2023-02-16T01:16:00.349Z,47.3
2023-02-16T01:17:00.324Z,46.8
2023-02-16T01:18:00.320Z,46.8
2023-02-16T01:19:00.296Z,46.8
2023-02-16T01:20:00.292Z,46.8
2023-02-16T01:21:00.280Z,46.8
2023-02-16T01:22:00.261Z,47.6
2023-02-16T01:23:00.288Z,47.6
2023-02-16T01:24:00.366Z,47.6
2023-02-16T01:25:00.317Z,47.6
2023-02-16T01:26:00.450Z,47.6
2023-02-16T01:27:00.968Z,46.1
2023-02-16T01:28:00.292Z,46.1
2023-02-16T01:29:00.287Z,46.1
2023-02-16T01:30:00.351Z,46.1
2023-02-16T01:31:00.948Z,46.1
2023-02-16T01:32:00.400Z,46.7
2023-02-16T01:33:00.286Z,46.7
2023-02-16T01:34:00.287Z,46.7
2023-02-16T01:35:00.437Z,46.7
2023-02-16T01:36:00.280Z,46.7
2023-02-16T01:37:00.314Z,46.4
2023-02-16T01:38:00.470Z,46.4
2023-02-16T01:39:01.148Z,46.4
2023-02-16T01:40:00.388Z,46.4
2023-02-16T01:41:01.595Z,46.4
2023-02-16T01:42:10.963Z,45.2
2023-02-16T01:43:08.969Z,45.2
2023-02-16T01:44:11.802Z,45.2
2023-02-16T01:45:09.946Z,45.2
2023-02-16T01:46:04.227Z,45.2
2023-02-16T01:47:14.623Z,48.3
2023-02-16T01:48:03.952Z,48.3
2023-02-16T01:49:00.284Z,48.3
2023-02-16T01:50:15.629Z,48.3
2023-02-16T01:51:07.145Z,48.3
2023-02-16T01:52:10.246Z,47.6
2023-02-16T01:53:11.506Z,47.6
2023-02-16T01:54:13.482Z,47.6
2023-02-16T01:55:16.571Z,47.6
2023-02-16T01:56:04.843Z,47.6
2023-02-16T01:57:10.045Z,46.2
2023-02-16T01:58:07.129Z,46.2
2023-02-16T01:59:17.064Z,46.2
2023-02-16T02:00:04.232Z,46.2
2023-02-16T02:01:00.285Z,46.2
2023-02-16T02:02:03.253Z,46.8
2023-02-16T02:03:01.752Z,46.8
2023-02-16T02:04:00.867Z,46.8
2023-02-16T02:05:20.193Z,46.8
2023-02-16T02:06:00.335Z,46.8
2023-02-16T02:07:00.304Z,45.7
2023-02-16T02:08:05.120Z,45.7
2023-02-16T02:09:09.171Z,45.7
2023-02-16T02:10:14.520Z,45.7
2023-02-16T02:11:08.578Z,45.7
2023-02-16T02:12:09.542Z,45.7
2023-02-16T02:13:06.508Z,45.7
2023-02-16T02:14:10.248Z,45.7
2023-02-16T02:15:00.300Z,45.7
2023-02-16T02:16:02.781Z,45.7
2023-02-16T02:17:06.278Z,45.0
2023-02-16T02:18:00.733Z,45.0
2023-02-16T02:19:00.326Z,45.0
2023-02-16T02:20:15.652Z,45.0
2023-02-16T02:21:10.228Z,45.0
2023-02-16T02:22:10.224Z,45.7
2023-02-16T02:23:20.209Z,45.7
2023-02-16T02:24:20.214Z,45.7
2023-02-16T02:25:20.196Z,45.7
2023-02-16T02:26:17.541Z,45.7
2023-02-16T02:27:10.239Z,45.4
2023-02-16T02:28:04.543Z,45.4
2023-02-16T02:29:10.120Z,45.4
2023-02-16T02:30:11.318Z,45.4
2023-02-16T02:31:20.302Z,45.4
2023-02-16T02:32:07.056Z,45.5
2023-02-16T02:33:10.253Z,45.5
2023-02-16T02:34:20.212Z,45.5
2023-02-16T02:35:11.305Z,45.5
2023-02-16T02:36:11.246Z,45.5
2023-02-16T02:37:10.527Z,46.6
2023-02-16T02:38:15.170Z,46.6
2023-02-16T02:39:13.214Z,46.6
2023-02-16T02:40:08.473Z,46.6
2023-02-16T02:41:11.270Z,46.6
2023-02-16T02:42:09.727Z,46.0
2023-02-16T02:43:17.486Z,46.0
2023-02-16T02:44:05.134Z,46.0
2023-02-16T02:45:06.364Z,46.0
2023-02-16T02:46:10.765Z,46.0
2023-02-16T02:47:00.438Z,45.8
2023-02-16T02:48:00.282Z,45.8
2023-02-16T02:49:00.290Z,45.8
2023-02-16T02:50:00.294Z,45.8
2023-02-16T02:51:03.567Z,45.8
2023-02-16T02:52:01.118Z,46.5
2023-02-16T02:53:05.259Z,46.5
2023-02-16T02:54:06.738Z,46.5
2023-02-16T02:55:00.328Z,46.5
2023-02-16T02:56:01.793Z,46.5
2023-02-16T02:57:05.663Z,45.0
2023-02-16T02:58:01.478Z,45.0
2023-02-16T02:59:05.538Z,45.0
2023-02-16T03:00:04.234Z,45.0
2023-02-16T03:01:01.014Z,45.0
2023-02-16T03:02:01.527Z,44.9
2023-02-16T03:03:09.913Z,44.9
2023-02-16T03:04:00.411Z,44.9
2023-02-16T03:05:02.845Z,44.9
2023-02-16T03:06:06.532Z,44.9
2023-02-16T03:07:04.128Z,45.1
2023-02-16T03:08:07.184Z,45.1
2023-02-16T03:09:05.098Z,45.1
2023-02-16T03:10:00.312Z,45.1
2023-02-16T03:11:10.394Z,45.1
2023-02-16T03:12:02.825Z,44.6
2023-02-16T03:13:02.685Z,44.6
2023-02-16T03:14:05.684Z,44.6
2023-02-16T03:15:01.503Z,44.6
2023-02-16T03:16:05.507Z,44.6
2023-02-16T03:17:08.874Z,44.6
2023-02-16T03:18:03.194Z,44.6
2023-02-16T03:19:01.794Z,44.6
2023-02-16T03:20:05.049Z,44.6
2023-02-16T03:21:02.488Z,44.6
2023-02-16T03:22:01.191Z,44.8
2023-02-16T03:23:03.646Z,44.8
2023-02-16T03:24:04.398Z,44.8
2023-02-16T03:25:00.341Z,44.8
2023-02-16T03:26:00.823Z,44.8
2023-02-16T03:27:01.335Z,45.0
2023-02-16T03:28:03.348Z,45.0
2023-02-16T03:29:01.760Z,45.0
2023-02-16T03:30:03.444Z,45.0
2023-02-16T03:31:02.512Z,45.0
2023-02-16T03:32:00.951Z,43.4
2023-02-16T03:33:00.302Z,43.4
2023-02-16T03:34:01.719Z,43.4
2023-02-16T03:35:00.689Z,43.4
2023-02-16T03:36:02.028Z,43.4
2023-02-16T03:37:00.499Z,46.3
2023-02-16T03:38:00.618Z,46.3
2023-02-16T03:39:01.390Z,46.3
2023-02-16T03:40:00.329Z,46.3
2023-02-16T03:41:00.494Z,46.3
2023-02-16T03:42:00.782Z,46.4
2023-02-16T03:43:02.592Z,46.4
2023-02-16T03:44:00.380Z,46.4
2023-02-16T03:45:00.434Z,46.4
2023-02-16T03:46:00.422Z,46.4
2023-02-16T03:47:00.274Z,54.5
2023-02-16T03:48:01.013Z,54.5
2023-02-16T03:49:00.285Z,54.5
2023-02-16T03:50:00.294Z,54.5
2023-02-16T03:51:00.304Z,54.5
2023-02-16T03:52:00.317Z,49.1
2023-02-16T03:53:00.392Z,49.1
2023-02-16T03:54:00.524Z,49.1
2023-02-16T03:55:00.283Z,49.1
2023-02-16T03:56:00.300Z,49.1
2023-02-16T03:57:00.345Z,47.5
2023-02-16T03:58:00.349Z,47.5
2023-02-16T03:59:00.280Z,47.5
2023-02-16T04:00:00.410Z,47.5
2023-02-16T04:01:00.360Z,47.5
2023-02-16T04:02:00.306Z,47.3
2023-02-16T04:03:01.225Z,47.3
2023-02-16T04:04:00.419Z,47.3
2023-02-16T04:05:00.291Z,47.3
2023-02-16T04:06:00.518Z,47.3
2023-02-16T04:07:00.305Z,45.7
2023-02-16T04:08:00.689Z,45.7
2023-02-16T04:09:00.822Z,45.7
2023-02-16T04:10:00.314Z,45.7
2023-02-16T04:11:00.303Z,45.7
2023-02-16T04:12:00.326Z,45.7
2023-02-16T04:13:00.281Z,45.7
2023-02-16T04:14:00.305Z,45.7
2023-02-16T04:15:00.519Z,45.7
2023-02-16T04:16:00.325Z,45.7
2023-02-16T04:17:00.299Z,46.1
2023-02-16T04:18:01.060Z,46.1
2023-02-16T04:19:00.273Z,46.1
2023-02-16T04:20:00.337Z,46.1
2023-02-16T04:21:00.296Z,46.1
2023-02-16T04:22:00.337Z,46.4
2023-02-16T04:23:00.854Z,46.4
2023-02-16T04:24:00.316Z,46.4
2023-02-16T04:25:00.323Z,46.4
2023-02-16T04:26:00.288Z,47.5
2023-02-16T04:27:00.318Z,47.5
2023-02-16T04:28:00.305Z,47.5
2023-02-16T04:29:00.361Z,47.5
2023-02-16T04:30:00.371Z,47.5
2023-02-16T04:31:00.428Z,45.9
2023-02-16T04:32:00.554Z,45.9
2023-02-16T04:33:00.292Z,45.9
2023-02-16T04:34:00.272Z,45.9
2023-02-16T04:35:00.500Z,45.9
2023-02-16T04:36:00.281Z,45.1
2023-02-16T04:37:00.376Z,45.1
2023-02-16T04:38:00.284Z,45.1
2023-02-16T04:39:00.327Z,45.1
2023-02-16T04:40:00.393Z,45.1
2023-02-16T04:41:00.331Z,46.2
2023-02-16T04:42:00.334Z,46.2
2023-02-16T04:43:00.297Z,46.2
2023-02-16T04:44:00.309Z,46.2
2023-02-16T04:45:00.357Z,46.2
2023-02-16T04:46:00.345Z,44.5
2023-02-16T04:47:00.317Z,44.5
2023-02-16T04:48:00.361Z,44.5
2023-02-16T04:49:00.364Z,44.5
2023-02-16T04:50:00.319Z,44.5
2023-02-16T04:51:03.453Z,45.9
2023-02-16T04:52:00.406Z,45.9
2023-02-16T04:53:00.340Z,45.9
2023-02-16T04:54:00.295Z,45.9
2023-02-16T04:55:00.327Z,45.9
2023-02-16T04:56:00.302Z,46.4
2023-02-16T04:57:00.482Z,46.4
2023-02-16T04:58:00.462Z,46.4
2023-02-16T04:59:00.295Z,46.4
2023-02-16T05:00:00.316Z,46.4
2023-02-16T05:01:00.305Z,49.2
2023-02-16T05:02:00.294Z,49.2
2023-02-16T05:03:00.284Z,49.2
2023-02-16T05:04:00.322Z,49.2
2023-02-16T05:05:00.309Z,49.2
2023-02-16T05:06:00.308Z,49.3
2023-02-16T05:07:00.306Z,49.3
2023-02-16T05:08:00.988Z,49.3
2023-02-16T05:09:00.297Z,49.3
2023-02-16T05:10:00.344Z,49.3
2023-02-16T05:11:00.303Z,47.9
2023-02-16T05:12:00.322Z,47.9
2023-02-16T05:13:00.350Z,47.9
2023-02-16T05:14:00.323Z,47.9
2023-02-16T05:15:00.357Z,47.9
2023-02-16T05:16:00.382Z,46.8
2023-02-16T05:17:00.287Z,46.8
2023-02-16T05:18:00.281Z,46.8
2023-02-16T05:19:00.507Z,46.8
2023-02-16T05:20:00.343Z,46.8
2023-02-16T05:21:00.294Z,48.0
2023-02-16T05:22:00.497Z,48.0
2023-02-16T05:23:00.284Z,48.0
2023-02-16T05:24:04.070Z,48.0
2023-02-16T05:25:01.191Z,48.0
2023-02-16T05:26:00.275Z,47.5
2023-02-16T05:27:05.363Z,47.5
2023-02-16T05:28:00.320Z,47.5
2023-02-16T05:29:01.194Z,47.5
2023-02-16T05:30:00.342Z,47.5
2023-02-16T05:31:00.329Z,48.2
2023-02-16T05:32:02.640Z,48.2
2023-02-16T05:33:00.342Z,48.2
2023-02-16T05:34:00.284Z,48.2
2023-02-16T05:35:00.461Z,48.2
2023-02-16T05:36:00.269Z,47.5
2023-02-16T05:37:00.389Z,47.5
2023-02-16T05:38:00.290Z,47.5
2023-02-16T05:39:00.329Z,47.5
2023-02-16T05:40:00.296Z,47.5
2023-02-16T05:41:00.852Z,47.6
2023-02-16T05:42:00.344Z,47.6
2023-02-16T05:43:00.271Z,47.6
2023-02-16T05:44:02.864Z,47.6
2023-02-16T05:45:00.309Z,47.6
2023-02-16T05:46:07.015Z,46.8
2023-02-16T05:47:00.281Z,46.8
2023-02-16T05:48:00.291Z,46.8
2023-02-16T05:49:00.706Z,46.8
2023-02-16T05:50:00.324Z,46.8
2023-02-16T05:51:00.304Z,48.7
2023-02-16T05:52:00.307Z,48.7
2023-02-16T05:53:00.455Z,48.7
2023-02-16T05:54:00.368Z,48.7
2023-02-16T05:55:00.356Z,48.7
2023-02-16T05:56:00.346Z,47.5
2023-02-16T05:57:00.300Z,47.5
2023-02-16T05:58:00.332Z,47.5
2023-02-16T05:59:00.314Z,47.5
2023-02-16T06:00:00.343Z,47.5
2023-02-16T06:01:00.561Z,47.6
2023-02-16T06:02:00.323Z,47.6
2023-02-16T06:03:00.349Z,47.6
2023-02-16T06:04:00.310Z,47.6
2023-02-16T06:05:00.298Z,47.6
2023-02-16T06:06:01.601Z,47.8
2023-02-16T06:07:01.026Z,47.8
2023-02-16T06:08:00.281Z,47.8
2023-02-16T06:09:00.273Z,47.8
2023-02-16T06:10:00.287Z,47.8
2023-02-16T06:11:00.292Z,48.7
2023-02-16T06:12:00.319Z,48.7
2023-02-16T06:13:00.346Z,48.7
2023-02-16T06:14:00.781Z,48.7
2023-02-16T06:15:00.637Z,48.7
2023-02-16T06:16:00.376Z,47.0
2023-02-16T06:17:00.369Z,47.0
2023-02-16T06:18:00.305Z,47.0
2023-02-16T06:19:01.126Z,47.0
2023-02-16T06:20:00.297Z,47.0
2023-02-16T06:21:00.301Z,48.3
2023-02-16T06:22:00.309Z,48.3
2023-02-16T06:23:00.292Z,48.3
2023-02-16T06:24:00.758Z,48.3
2023-02-16T06:25:00.314Z,48.3
2023-02-16T06:26:00.305Z,48.2
2023-02-16T06:27:00.275Z,48.2
2023-02-16T06:28:00.645Z,48.2
2023-02-16T06:29:00.544Z,48.2
2023-02-16T06:30:00.412Z,48.2
2023-02-16T06:31:00.468Z,48.2
2023-02-16T06:32:00.474Z,48.2
2023-02-16T06:33:01.449Z,48.2
2023-02-16T06:34:00.303Z,48.2
2023-02-16T06:35:00.559Z,48.2
2023-02-16T06:36:00.375Z,47.5
2023-02-16T06:37:00.303Z,47.5
2023-02-16T06:38:00.349Z,47.5
2023-02-16T06:39:00.370Z,47.5
2023-02-16T06:40:00.308Z,47.5
2023-02-16T06:41:00.376Z,47.7
2023-02-16T06:42:00.276Z,47.7
2023-02-16T06:43:00.322Z,47.7
2023-02-16T06:44:03.328Z,47.7
2023-02-16T06:45:00.348Z,47.7
2023-02-16T06:46:00.693Z,47.3
2023-02-16T06:47:00.304Z,47.3
2023-02-16T06:48:00.297Z,47.3
2023-02-16T06:49:00.340Z,47.3
2023-02-16T06:50:00.821Z,47.3
2023-02-16T06:51:00.277Z,49.5
2023-02-16T06:52:00.429Z,49.5
2023-02-16T06:53:00.334Z,49.5
2023-02-16T06:54:00.282Z,49.5
2023-02-16T06:55:00.346Z,49.5
2023-02-16T06:56:00.318Z,49.4
2023-02-16T06:57:00.286Z,49.4
2023-02-16T06:58:00.289Z,49.4
2023-02-16T06:59:00.718Z,49.4
2023-02-16T07:00:00.314Z,49.4
2023-02-16T07:01:00.452Z,48.1
2023-02-16T07:02:00.369Z,48.1
2023-02-16T07:03:00.702Z,48.1
2023-02-16T07:04:00.307Z,48.1
2023-02-16T07:05:00.644Z,48.1
2023-02-16T07:06:00.358Z,47.2
2023-02-16T07:07:00.318Z,47.2
2023-02-16T07:08:00.319Z,47.2
2023-02-16T07:09:00.308Z,47.2
2023-02-16T07:10:00.363Z,47.2
2023-02-16T07:11:00.273Z,46.5
2023-02-16T07:12:00.306Z,46.5
2023-02-16T07:13:00.273Z,46.5
2023-02-16T07:14:00.355Z,46.5
2023-02-16T07:15:00.344Z,46.5
2023-02-16T07:16:00.332Z,45.5
2023-02-16T07:17:00.302Z,45.5
2023-02-16T07:18:00.296Z,45.5
2023-02-16T07:19:00.295Z,45.5
2023-02-16T07:20:00.330Z,45.5
2023-02-16T07:21:00.725Z,44.9
2023-02-16T07:22:00.816Z,44.9
2023-02-16T07:23:00.932Z,44.9
2023-02-16T07:24:00.296Z,44.9
2023-02-16T07:25:00.314Z,44.9
2023-02-16T07:26:00.373Z,45.4
2023-02-16T07:27:00.305Z,45.4
2023-02-16T07:28:00.297Z,45.4
2023-02-16T07:29:00.318Z,45.4
2023-02-16T07:30:00.321Z,45.4
2023-02-16T07:31:05.401Z,40.8
2023-02-16T07:32:00.965Z,40.8
2023-02-16T07:33:00.283Z,40.8
2023-02-16T07:34:00.510Z,40.8
2023-02-16T07:35:00.291Z,40.8
2023-02-16T07:36:00.410Z,42.3
2023-02-16T07:37:00.325Z,42.3
2023-02-16T07:38:00.355Z,42.3
2023-02-16T07:39:00.316Z,42.3
2023-02-16T07:40:00.317Z,42.3
2023-02-16T07:41:00.314Z,41.8
2023-02-16T07:42:00.289Z,41.8
2023-02-16T07:43:02.411Z,41.8
2023-02-16T07:44:00.298Z,41.8
2023-02-16T07:45:00.277Z,41.8
2023-02-16T07:46:00.994Z,39.9
2023-02-16T07:47:00.296Z,39.9
2023-02-16T07:48:01.275Z,39.9
2023-02-16T07:49:00.353Z,39.9
2023-02-16T07:50:00.320Z,39.9
2023-02-16T07:51:00.359Z,37.4
2023-02-16T07:52:00.284Z,37.4
2023-02-16T07:53:01.282Z,37.4
2023-02-16T07:54:00.325Z,37.4
2023-02-16T07:55:00.475Z,37.4
2023-02-16T07:56:00.312Z,37.1
2023-02-16T07:57:00.335Z,37.1
2023-02-16T07:58:00.275Z,37.1
2023-02-16T07:59:01.872Z,37.1
2023-02-16T08:00:00.354Z,37.1
2023-02-16T08:02:00.719Z,37.1
2023-02-16T08:03:01.221Z,37.1
2023-02-16T08:04:00.342Z,37.1
2023-02-16T08:05:00.402Z,37.1
2023-02-16T08:06:01.089Z,31.5
2023-02-16T08:07:00.291Z,31.5
2023-02-16T08:08:00.316Z,31.5
2023-02-16T08:09:00.280Z,31.5
2023-02-16T08:10:00.297Z,31.5
2023-02-16T08:11:08.105Z,31.0
2023-02-16T08:12:00.298Z,31.0
2023-02-16T08:13:00.953Z,31.0
2023-02-16T08:14:00.337Z,31.0
2023-02-16T08:15:00.293Z,31.0
2023-02-16T08:16:00.338Z,29.4
2023-02-16T08:17:00.526Z,29.4
2023-02-16T08:18:00.269Z,29.4
2023-02-16T08:19:00.848Z,29.4
2023-02-16T08:20:00.347Z,29.4
2023-02-16T08:21:11.236Z,29.7
2023-02-16T08:22:00.688Z,29.7
2023-02-16T08:23:00.288Z,29.7
2023-02-16T08:24:03.403Z,29.7
2023-02-16T08:25:00.277Z,29.7
2023-02-16T08:26:06.343Z,26.8
2023-02-16T08:27:01.898Z,26.8
2023-02-16T08:28:00.298Z,26.8
2023-02-16T08:29:00.356Z,26.8
2023-02-16T08:30:00.358Z,26.8
2023-02-16T08:31:02.028Z,26.6
2023-02-16T08:32:01.607Z,26.6
2023-02-16T08:33:00.617Z,26.6
2023-02-16T08:34:00.834Z,26.6
2023-02-16T08:35:00.297Z,26.6
2023-02-16T08:36:00.365Z,25.1
2023-02-16T08:37:00.305Z,25.1
2023-02-16T08:38:00.421Z,25.1
2023-02-16T08:39:03.387Z,25.1
2023-02-16T08:40:00.292Z,25.1
2023-02-16T08:41:00.765Z,25.5
2023-02-16T08:42:00.924Z,25.5
2023-02-16T08:43:00.303Z,25.5
2023-02-16T08:44:01.436Z,25.5
2023-02-16T08:45:00.294Z,25.5
2023-02-16T08:46:00.435Z,24.8
2023-02-16T08:47:00.362Z,24.8
2023-02-16T08:48:00.331Z,24.8
2023-02-16T08:49:00.962Z,24.8
2023-02-16T08:50:00.293Z,24.8
2023-02-16T08:51:01.196Z,26.4
2023-02-16T08:52:00.369Z,26.4
2023-02-16T08:53:00.301Z,26.4
2023-02-16T08:54:02.630Z,26.4
2023-02-16T08:55:00.273Z,26.4
2023-02-16T08:56:03.767Z,24.8
2023-02-16T08:57:00.956Z,24.8
2023-02-16T08:58:00.293Z,24.8
2023-02-16T08:59:00.834Z,24.8
2023-02-16T09:00:00.298Z,24.8
2023-02-16T09:01:02.931Z,26.0
2023-02-16T09:02:00.933Z,26.0
2023-02-16T09:03:00.352Z,26.0
2023-02-16T09:04:00.278Z,26.0
2023-02-16T09:05:00.296Z,26.0
2023-02-16T09:06:03.828Z,23.4
2023-02-16T09:07:00.287Z,23.4
2023-02-16T09:08:00.317Z,23.4
2023-02-16T09:09:00.291Z,23.4
2023-02-16T09:10:02.109Z,23.4
2023-02-16T09:11:01.838Z,24.1
2023-02-16T09:12:00.334Z,24.1
2023-02-16T09:13:00.298Z,24.1
2023-02-16T09:14:00.597Z,24.1
2023-02-16T09:15:00.276Z,24.1
2023-02-16T09:16:02.675Z,24.4
2023-02-16T09:17:00.423Z,24.4
2023-02-16T09:18:00.290Z,24.4
2023-02-16T09:19:00.584Z,24.4
2023-02-16T09:20:00.745Z,24.4
2023-02-16T09:21:05.645Z,24.1
2023-02-16T09:22:00.300Z,24.1
2023-02-16T09:23:00.314Z,24.1
2023-02-16T09:24:02.907Z,24.1
2023-02-16T09:25:00.294Z,24.1
2023-02-16T09:26:00.652Z,25.1
2023-02-16T09:27:00.272Z,25.1
2023-02-16T09:28:00.431Z,25.1
2023-02-16T09:29:00.695Z,25.1
2023-02-16T09:30:00.359Z,25.1
2023-02-16T09:31:00.511Z,25.2
2023-02-16T09:32:00.348Z,25.2
2023-02-16T09:33:00.304Z,25.2
2023-02-16T09:34:04.402Z,25.2
2023-02-16T09:35:00.389Z,25.2
2023-02-16T09:36:03.531Z,24.3
2023-02-16T09:37:00.322Z,24.3
2023-02-16T09:38:00.308Z,24.3
2023-02-16T09:39:00.317Z,24.3
2023-02-16T09:40:00.297Z,24.3
2023-02-16T09:41:05.319Z,24.1
2023-02-16T09:42:16.569Z,24.1
2023-02-16T09:43:13.300Z,24.1
2023-02-16T09:44:20.209Z,24.1
2023-02-16T09:45:11.580Z,22.8
2023-02-16T09:46:02.165Z,22.8
2023-02-16T09:47:03.869Z,22.8
2023-02-16T09:48:01.108Z,22.8
2023-02-16T09:49:02.344Z,22.8
2023-02-16T09:50:11.614Z,25.1
2023-02-16T09:51:02.763Z,25.1
2023-02-16T09:52:12.282Z,25.1
2023-02-16T09:53:06.865Z,25.1
2023-02-16T09:54:18.743Z,25.1
2023-02-16T09:55:01.873Z,25.1
2023-02-16T09:56:13.881Z,31.0
2023-02-16T09:57:16.174Z,31.0
2023-02-16T09:58:01.301Z,31.0
2023-02-16T09:59:13.159Z,31.0
2023-02-16T10:00:04.868Z,31.0
2023-02-16T10:01:09.734Z,24.0
2023-02-16T10:02:20.231Z,24.0
2023-02-16T10:03:10.305Z,24.0
2023-02-16T10:04:20.252Z,24.0
2023-02-16T10:05:19.691Z,22.7
2023-02-16T10:06:13.475Z,22.7
2023-02-16T10:07:11.253Z,22.7
2023-02-16T10:08:13.480Z,22.7
2023-02-16T10:09:06.693Z,22.7
2023-02-16T10:10:02.493Z,22.7
2023-02-16T10:11:15.958Z,22.9
2023-02-16T10:12:08.395Z,22.9
2023-02-16T10:13:10.744Z,22.9
2023-02-16T10:14:07.179Z,22.9
2023-02-16T10:15:08.057Z,22.4
2023-02-16T10:16:03.599Z,22.4
2023-02-16T10:17:05.253Z,22.4
2023-02-16T10:18:07.465Z,22.4
2023-02-16T10:19:10.439Z,22.4
2023-02-16T10:20:05.016Z,22.4
2023-02-16T10:21:06.033Z,22.5
2023-02-16T10:22:04.635Z,22.5
2023-02-16T10:23:12.647Z,22.5
2023-02-16T10:24:03.942Z,22.5
2023-02-16T10:25:04.806Z,22.5
2023-02-16T10:26:16.133Z,21.5
2023-02-16T10:27:06.322Z,21.5
2023-02-16T10:28:22.653Z,21.5
2023-02-16T10:29:06.187Z,21.5
2023-02-16T10:30:00.360Z,21.5
2023-02-16T10:31:11.760Z,22.0
2023-02-16T10:32:00.485Z,22.0
2023-02-16T10:33:13.977Z,22.0
2023-02-16T10:34:16.461Z,22.0
2023-02-16T10:35:12.921Z,21.1
2023-02-16T10:36:13.060Z,21.1
2023-02-16T10:37:13.503Z,21.1
2023-02-16T10:38:15.988Z,21.1
2023-02-16T10:39:06.673Z,21.1
2023-02-16T10:40:11.256Z,21.5
2023-02-16T10:41:08.677Z,21.5
2023-02-16T10:42:10.467Z,21.5
2023-02-16T10:43:14.129Z,21.5
2023-02-16T10:44:10.083Z,21.5
2023-02-16T10:45:06.035Z,21.7
2023-02-16T10:46:01.144Z,21.7
2023-02-16T10:47:03.086Z,21.7
2023-02-16T10:48:00.310Z,21.7
2023-02-16T10:49:00.431Z,21.7
2023-02-16T10:50:00.678Z,21.7
2023-02-16T10:51:11.301Z,21.2
2023-02-16T10:52:02.451Z,21.2
2023-02-16T10:53:09.003Z,21.2
2023-02-16T10:54:04.806Z,21.2
2023-02-16T10:55:00.803Z,21.2
2023-02-16T10:56:00.497Z,22.3
2023-02-16T10:57:10.293Z,22.3
2023-02-16T10:58:00.998Z,22.3
2023-02-16T10:59:05.452Z,22.3
2023-02-16T11:00:05.314Z,21.6
2023-02-16T11:01:15.282Z,21.6
2023-02-16T11:02:03.282Z,21.6
2023-02-16T11:03:01.619Z,21.6
2023-02-16T11:04:00.353Z,21.6
2023-02-16T11:05:00.378Z,21.6
2023-02-16T11:06:18.964Z,19.4
2023-02-16T11:07:07.561Z,19.4
2023-02-16T11:08:01.140Z,19.4
2023-02-16T11:09:01.416Z,19.4
2023-02-16T11:10:18.273Z,19.5
2023-02-16T11:11:08.691Z,19.5
2023-02-16T11:12:02.274Z,19.5
2023-02-16T11:13:01.458Z,19.5
2023-02-16T11:14:03.889Z,19.5
2023-02-16T11:15:13.499Z,19.9
2023-02-16T11:16:08.514Z,19.9
2023-02-16T11:17:03.155Z,19.9
2023-02-16T11:18:04.348Z,19.9
2023-02-16T11:19:05.494Z,19.9
2023-02-16T11:20:04.713Z,20.3
2023-02-16T11:21:00.526Z,20.3
2023-02-16T11:22:00.337Z,20.3
2023-02-16T11:23:13.131Z,20.3
2023-02-16T11:24:00.295Z,20.3
2023-02-16T11:25:17.767Z,19.6
2023-02-16T11:26:02.988Z,19.6
2023-02-16T11:27:01.716Z,19.6
2023-02-16T11:28:01.011Z,19.6
2023-02-16T11:29:18.625Z,19.6
2023-02-16T11:30:14.398Z,20.5
2023-02-16T11:31:09.450Z,20.5
2023-02-16T11:32:11.379Z,20.5
2023-02-16T11:33:03.164Z,20.5
2023-02-16T11:34:06.654Z,20.5
2023-02-16T11:35:00.858Z,22.3
2023-02-16T11:36:01.002Z,22.3
2023-02-16T11:37:12.374Z,22.3
2023-02-16T11:38:00.325Z,22.3
2023-02-16T11:39:06.387Z,22.3
2023-02-16T11:40:06.504Z,22.3
2023-02-16T11:41:04.774Z,22.3
2023-02-16T11:42:04.044Z,22.3
2023-02-16T11:43:01.267Z,22.3
2023-02-16T11:44:01.937Z,22.3
2023-02-16T11:45:02.682Z,21.4
2023-02-16T11:46:04.916Z,21.4
2023-02-16T11:47:03.083Z,21.4
2023-02-16T11:48:04.609Z,21.4
2023-02-16T11:57:06.925Z,21.0
2023-02-16T11:58:20.214Z,21.0
2023-02-16T11:59:03.185Z,21.0
2023-02-16T12:00:12.913Z,22.8
2023-02-16T12:01:17.600Z,22.8
2023-02-16T12:02:10.442Z,22.8
2023-02-16T12:03:11.246Z,22.8
2023-02-16T12:04:11.304Z,22.8
2023-02-16T12:05:20.196Z,21.5
2023-02-16T12:06:20.199Z,21.5
2023-02-16T12:07:13.434Z,21.5
2023-02-16T12:08:15.399Z,21.5
2023-02-16T12:09:06.887Z,21.5
2023-02-16T12:10:11.155Z,22.0
2023-02-16T12:11:13.689Z,22.0
2023-02-16T12:12:20.237Z,22.0
2023-02-16T12:13:12.450Z,22.0
2023-02-16T12:14:13.847Z,22.0
2023-02-16T12:15:08.221Z,22.7
2023-02-16T12:16:11.544Z,22.7
2023-02-16T12:17:06.098Z,22.7
2023-02-16T12:18:13.708Z,22.7
2023-02-16T12:19:13.493Z,22.7
2023-02-16T12:20:20.189Z,21.9
2023-02-16T12:21:07.382Z,21.9
2023-02-16T12:22:15.280Z,21.9
2023-02-16T12:23:16.113Z,21.9
2023-02-16T12:24:13.990Z,21.9
2023-02-16T12:25:17.654Z,21.3
2023-02-16T12:26:13.505Z,21.3
2023-02-16T12:27:02.840Z,21.3
2023-02-16T12:28:16.532Z,21.3
2023-02-16T12:29:12.863Z,21.3
2023-02-16T12:30:10.317Z,22.6
2023-02-16T12:31:09.885Z,22.6
2023-02-16T12:32:11.247Z,22.6
2023-02-16T12:33:08.454Z,22.6
2023-02-16T12:34:13.508Z,22.6
2023-02-16T12:35:20.216Z,25.1
2023-02-16T12:36:20.216Z,25.1
2023-02-16T12:37:07.974Z,25.1
2023-02-16T12:38:00.330Z,25.1
2023-02-16T12:39:11.559Z,25.1
2023-02-16T12:40:13.515Z,21.0
2023-02-16T12:41:17.666Z,21.0
2023-02-16T12:42:20.204Z,21.0
2023-02-16T12:43:18.208Z,21.0
2023-02-16T12:44:06.824Z,21.0
2023-02-16T12:45:10.243Z,22.7
2023-02-16T12:46:05.182Z,22.7
2023-02-16T12:47:04.378Z,22.7
2023-02-16T12:48:07.352Z,22.7
2023-02-16T12:49:06.330Z,22.7
2023-02-16T12:50:03.805Z,22.0
2023-02-16T12:51:04.159Z,22.0
2023-02-16T12:52:05.655Z,22.0
2023-02-16T12:53:08.020Z,22.0
2023-02-16T12:54:09.432Z,22.0
2023-02-16T12:55:20.205Z,22.4
2023-02-16T12:56:04.335Z,22.4
2023-02-16T12:57:05.969Z,22.4
2023-02-16T12:58:08.968Z,22.4
2023-02-16T12:59:20.186Z,22.4
2023-02-16T13:00:09.026Z,22.5
2023-02-16T13:01:14.858Z,22.5
2023-02-16T13:02:03.210Z,22.5
2023-02-16T13:03:16.056Z,22.5
2023-02-16T13:04:14.823Z,22.5
2023-02-16T13:05:15.384Z,23.6
2023-02-16T13:06:20.208Z,23.6
2023-02-16T13:07:05.854Z,23.6
2023-02-16T13:08:09.474Z,23.6
2023-02-16T13:09:19.017Z,23.6
2023-02-16T13:10:13.430Z,23.8
2023-02-16T13:11:14.044Z,23.8
2023-02-16T13:12:10.272Z,23.8
2023-02-16T13:13:07.928Z,23.8
2023-02-16T13:14:05.152Z,23.8
2023-02-16T13:15:04.672Z,23.3
2023-02-16T13:16:12.901Z,23.3
2023-02-16T13:17:12.862Z,23.3
2023-02-16T13:18:03.403Z,23.3
2023-02-16T13:19:00.379Z,23.3
2023-02-16T13:20:02.614Z,24.2
2023-02-16T13:21:08.157Z,24.2
2023-02-16T13:22:20.264Z,24.2
2023-02-16T13:23:20.241Z,24.2
2023-02-16T13:24:20.193Z,24.2
2023-02-16T13:25:22.025Z,23.6
2023-02-16T13:26:10.580Z,23.6
2023-02-16T13:27:20.194Z,23.6